FIN52Y EGLL-EFHK
Flight info
| Callsign | FIN52Y |
|---|---|
| Flight time | N/A |
| Altitude | 41000 |
| Route | BPK Q295 MATCH P144 SAMHO DCT LARGA DCT SOPTO DCT RIRIP Y364 LAKUT |
| Aircraft | A359/H-SDE2E3GHIJ3J4J5LM1ORWXY/LB1D1 |
Departure
| Time | N/A |
|---|---|
| Airport | London Heathrow Airport (EGLL) |
Arrival
| Time | 2026-05-07 19:11 |
|---|---|
| Airport | Helsinki Vantaa Airport (EFHK) |
| Time | Latitude | Longitude | Altitude | Speed | Heading |
|---|---|---|---|---|---|
| 2026-05-07 18:18 | 57.93739 | 12.38514 | 41113 ft | 530 kts | 59° |
| 2026-05-07 18:19 | 57.97870 | 12.52138 | 41119 ft | 532 kts | 59° |
| 2026-05-07 18:19 | 58.01527 | 12.64265 | 41114 ft | 532 kts | 59° |
| 2026-05-07 18:20 | 58.05149 | 12.76341 | 41117 ft | 531 kts | 59° |
| 2026-05-07 18:20 | 58.08769 | 12.88470 | 41111 ft | 529 kts | 59° |
| 2026-05-07 18:21 | 58.12369 | 13.00597 | 41113 ft | 529 kts | 60° |
| 2026-05-07 18:21 | 58.15957 | 13.12747 | 41114 ft | 528 kts | 60° |
| 2026-05-07 18:22 | 58.19530 | 13.24909 | 41117 ft | 528 kts | 60° |
| 2026-05-07 18:22 | 58.23090 | 13.37089 | 41120 ft | 528 kts | 60° |
| 2026-05-07 18:23 | 58.26642 | 13.49309 | 41117 ft | 528 kts | 60° |
| 2026-05-07 18:23 | 58.30179 | 13.61538 | 41122 ft | 528 kts | 60° |
| 2026-05-07 18:24 | 58.33710 | 13.73815 | 41118 ft | 530 kts | 60° |
| 2026-05-07 18:24 | 58.37234 | 13.86132 | 41117 ft | 530 kts | 60° |
| 2026-05-07 18:25 | 58.40750 | 13.98488 | 41120 ft | 530 kts | 60° |
| 2026-05-07 18:25 | 58.44228 | 14.10773 | 41112 ft | 530 kts | 60° |
| 2026-05-07 18:26 | 58.47718 | 14.23172 | 41107 ft | 530 kts | 61° |
| 2026-05-07 18:26 | 58.51192 | 14.35576 | 41101 ft | 530 kts | 61° |
| 2026-05-07 18:27 | 58.54664 | 14.48044 | 41100 ft | 531 kts | 61° |
| 2026-05-07 18:27 | 58.58130 | 14.60551 | 41102 ft | 531 kts | 61° |
| 2026-05-07 18:28 | 58.61592 | 14.73084 | 41107 ft | 532 kts | 61° |
| 2026-05-07 18:28 | 58.65023 | 14.85631 | 41111 ft | 531 kts | 61° |
| 2026-05-07 18:29 | 58.68448 | 14.98219 | 41115 ft | 531 kts | 61° |
| 2026-05-07 18:29 | 58.71865 | 15.10839 | 41136 ft | 532 kts | 62° |
| 2026-05-07 18:30 | 58.75277 | 15.23500 | 41117 ft | 533 kts | 62° |
| 2026-05-07 18:30 | 58.78682 | 15.36210 | 41118 ft | 534 kts | 62° |
| 2026-05-07 18:31 | 58.82080 | 15.48964 | 41118 ft | 535 kts | 62° |
| 2026-05-07 18:31 | 58.85466 | 15.61749 | 41124 ft | 535 kts | 62° |
| 2026-05-07 18:32 | 58.88827 | 15.74508 | 41123 ft | 535 kts | 62° |
| 2026-05-07 18:32 | 58.92184 | 15.87326 | 41129 ft | 535 kts | 62° |
| 2026-05-07 18:33 | 58.95538 | 16.00207 | 41128 ft | 536 kts | 62° |
| 2026-05-07 18:33 | 58.98884 | 16.13131 | 41130 ft | 536 kts | 62° |
| 2026-05-07 18:34 | 59.02219 | 16.26089 | 41136 ft | 537 kts | 62° |
| 2026-05-07 18:34 | 59.05543 | 16.39077 | 41136 ft | 537 kts | 62° |
| 2026-05-07 18:35 | 59.08854 | 16.52093 | 41139 ft | 537 kts | 63° |
| 2026-05-07 18:35 | 59.12153 | 16.65135 | 41146 ft | 538 kts | 63° |
| 2026-05-07 18:36 | 59.15448 | 16.78243 | 41142 ft | 539 kts | 63° |
| 2026-05-07 18:36 | 59.18730 | 16.91373 | 41134 ft | 539 kts | 63° |
| 2026-05-07 18:37 | 59.21999 | 17.04530 | 41147 ft | 539 kts | 63° |
| 2026-05-07 18:37 | 59.25257 | 17.17721 | 41149 ft | 539 kts | 63° |
| 2026-05-07 18:38 | 59.28499 | 17.30929 | 41149 ft | 539 kts | 63° |
| 2026-05-07 18:38 | 59.31728 | 17.44162 | 41152 ft | 540 kts | 63° |
| 2026-05-07 18:39 | 59.34962 | 17.57494 | 41154 ft | 542 kts | 63° |
| 2026-05-07 18:39 | 59.38162 | 17.70772 | 41134 ft | 542 kts | 63° |
| 2026-05-07 18:40 | 59.41369 | 17.84158 | 41156 ft | 542 kts | 64° |
| 2026-05-07 18:40 | 59.44566 | 17.97587 | 41157 ft | 542 kts | 64° |
| 2026-05-07 18:41 | 59.47210 | 18.08754 | 41158 ft | 542 kts | 64° |
| 2026-05-07 18:41 | 59.50383 | 18.22233 | 41162 ft | 543 kts | 64° |
| 2026-05-07 18:42 | 59.53549 | 18.35769 | 41161 ft | 544 kts | 64° |
| 2026-05-07 18:42 | 59.56701 | 18.49325 | 41163 ft | 544 kts | 64° |
| 2026-05-07 18:43 | 59.59843 | 18.62927 | 41167 ft | 544 kts | 64° |
| 2026-05-07 18:43 | 59.62965 | 18.76531 | 41168 ft | 543 kts | 65° |
| 2026-05-07 18:44 | 59.66069 | 18.90143 | 41173 ft | 543 kts | 65° |
| 2026-05-07 18:44 | 59.69164 | 19.03801 | 41179 ft | 544 kts | 65° |
| 2026-05-07 18:45 | 59.72247 | 19.17493 | 41173 ft | 544 kts | 65° |
| 2026-05-07 18:45 | 59.75315 | 19.31211 | 41173 ft | 545 kts | 65° |
| 2026-05-07 18:46 | 59.78377 | 19.44957 | 41172 ft | 544 kts | 65° |
| 2026-05-07 18:46 | 59.81420 | 19.58737 | 41173 ft | 545 kts | 65° |
| 2026-05-07 18:47 | 59.84448 | 19.72553 | 41170 ft | 545 kts | 65° |
| 2026-05-07 18:47 | 59.87459 | 19.86385 | 41169 ft | 545 kts | 65° |
| 2026-05-07 18:48 | 59.90461 | 20.00260 | 41160 ft | 546 kts | 65° |
| 2026-05-07 18:48 | 59.93448 | 20.14154 | 41164 ft | 546 kts | 65° |
| 2026-05-07 18:49 | 59.96426 | 20.28092 | 41160 ft | 545 kts | 66° |
| 2026-05-07 18:49 | 59.99365 | 20.41947 | 41162 ft | 545 kts | 66° |
| 2026-05-07 18:50 | 60.02305 | 20.55903 | 41170 ft | 545 kts | 66° |
| 2026-05-07 18:50 | 60.05234 | 20.69894 | 41167 ft | 545 kts | 66° |
| 2026-05-07 18:51 | 60.08149 | 20.83917 | 41162 ft | 545 kts | 66° |
| 2026-05-07 18:51 | 60.11044 | 20.97936 | 41092 ft | 540 kts | 66° |
| 2026-05-07 18:51 | 60.12406 | 21.04911 | 40510 ft | 537 kts | 71° |
| 2026-05-07 18:52 | 60.13463 | 21.12130 | 39523 ft | 543 kts | 75° |
| 2026-05-07 18:52 | 60.14390 | 21.19518 | 38491 ft | 548 kts | 76° |
| 2026-05-07 18:52 | 60.15292 | 21.26959 | 37978 ft | 550 kts | 76° |
| 2026-05-07 18:52 | 60.16190 | 21.34437 | 37801 ft | 551 kts | 76° |
| 2026-05-07 18:53 | 60.17083 | 21.41920 | 37354 ft | 551 kts | 76° |
| 2026-05-07 18:53 | 60.17972 | 21.49405 | 36659 ft | 552 kts | 76° |
| 2026-05-07 18:53 | 60.18860 | 21.56930 | 35803 ft | 554 kts | 75° |
| 2026-05-07 18:53 | 60.19745 | 21.64474 | 34967 ft | 556 kts | 75° |
| 2026-05-07 18:54 | 60.20631 | 21.72052 | 34158 ft | 558 kts | 75° |
| 2026-05-07 18:54 | 60.21504 | 21.79569 | 33205 ft | 560 kts | 75° |
| 2026-05-07 18:54 | 60.22383 | 21.87180 | 32276 ft | 558 kts | 75° |
| 2026-05-07 18:54 | 60.23256 | 21.94778 | 31350 ft | 556 kts | 75° |
| 2026-05-07 18:55 | 60.24121 | 22.02348 | 30466 ft | 554 kts | 75° |
| 2026-05-07 18:55 | 60.24978 | 22.09896 | 29505 ft | 552 kts | 75° |
| 2026-05-07 18:55 | 60.25820 | 22.17359 | 28397 ft | 538 kts | 75° |
| 2026-05-07 18:55 | 60.26637 | 22.24636 | 27320 ft | 530 kts | 75° |
| 2026-05-07 18:56 | 60.27441 | 22.31833 | 26310 ft | 524 kts | 75° |
| 2026-05-07 18:56 | 60.28235 | 22.38972 | 25383 ft | 519 kts | 75° |
| 2026-05-07 18:56 | 60.29016 | 22.46029 | 24484 ft | 513 kts | 76° |
| 2026-05-07 18:56 | 60.29784 | 22.53009 | 23589 ft | 507 kts | 76° |
| 2026-05-07 18:57 | 60.30537 | 22.59899 | 22620 ft | 500 kts | 76° |
| 2026-05-07 18:57 | 60.31276 | 22.66694 | 21663 ft | 492 kts | 75° |
| 2026-05-07 18:57 | 60.32001 | 22.73385 | 20935 ft | 484 kts | 76° |
| 2026-05-07 18:57 | 60.32711 | 22.79982 | 20304 ft | 479 kts | 76° |
| 2026-05-07 18:58 | 60.33413 | 22.86528 | 19679 ft | 474 kts | 76° |
| 2026-05-07 18:58 | 60.34104 | 22.92987 | 19054 ft | 468 kts | 76° |
| 2026-05-07 18:58 | 60.34782 | 22.99373 | 18446 ft | 462 kts | 75° |
| 2026-05-07 18:58 | 60.35449 | 23.05689 | 17736 ft | 457 kts | 75° |
| 2026-05-07 18:59 | 60.36103 | 23.11918 | 17031 ft | 450 kts | 76° |
| 2026-05-07 18:59 | 60.36747 | 23.18073 | 16293 ft | 444 kts | 76° |
| 2026-05-07 18:59 | 60.37378 | 23.24135 | 15558 ft | 438 kts | 76° |
| 2026-05-07 18:59 | 60.37997 | 23.30111 | 14849 ft | 432 kts | 76° |
| 2026-05-07 19:00 | 60.38605 | 23.36008 | 14163 ft | 426 kts | 76° |
| 2026-05-07 19:00 | 60.39204 | 23.41832 | 13411 ft | 420 kts | 76° |
| 2026-05-07 19:00 | 60.39789 | 23.47555 | 12652 ft | 412 kts | 76° |
| 2026-05-07 19:00 | 60.40360 | 23.53172 | 11920 ft | 403 kts | 76° |
| 2026-05-07 19:01 | 60.40916 | 23.58663 | 11375 ft | 395 kts | 76° |
| 2026-05-07 19:01 | 60.41461 | 23.64070 | 10975 ft | 390 kts | 77° |
| 2026-05-07 19:01 | 60.42000 | 23.69428 | 10606 ft | 386 kts | 77° |
| 2026-05-07 19:01 | 60.42529 | 23.74709 | 10337 ft | 379 kts | 77° |
| 2026-05-07 19:02 | 60.43047 | 23.79917 | 10158 ft | 376 kts | 77° |
| 2026-05-07 19:02 | 60.43561 | 23.85102 | 10114 ft | 375 kts | 77° |
| 2026-05-07 19:02 | 60.44058 | 23.90267 | 10113 ft | 372 kts | 79° |
| 2026-05-07 19:02 | 60.44373 | 23.95325 | 9988 ft | 353 kts | 83° |
| 2026-05-07 19:03 | 60.44612 | 24.00175 | 9707 ft | 339 kts | 83° |
| 2026-05-07 19:03 | 60.44852 | 24.04860 | 9207 ft | 332 kts | 83° |
| 2026-05-07 19:03 | 60.45103 | 24.09486 | 8648 ft | 328 kts | 83° |
| 2026-05-07 19:03 | 60.45352 | 24.14046 | 8073 ft | 324 kts | 83° |
| 2026-05-07 19:04 | 60.45602 | 24.18574 | 7499 ft | 322 kts | 83° |
| 2026-05-07 19:04 | 60.45850 | 24.23041 | 7161 ft | 319 kts | 83° |
| 2026-05-07 19:04 | 60.46103 | 24.27513 | 6885 ft | 318 kts | 83° |
| 2026-05-07 19:04 | 60.46347 | 24.31901 | 6523 ft | 310 kts | 83° |
| 2026-05-07 19:05 | 60.46578 | 24.36174 | 6137 ft | 301 kts | 82° |
| 2026-05-07 19:05 | 60.46804 | 24.40341 | 5746 ft | 293 kts | 82° |
| 2026-05-07 19:05 | 60.47017 | 24.44296 | 5363 ft | 275 kts | 81° |
| 2026-05-07 19:05 | 60.47227 | 24.48109 | 5053 ft | 270 kts | 81° |
| 2026-05-07 19:06 | 60.47368 | 24.51902 | 4772 ft | 271 kts | 89° |
| 2026-05-07 19:06 | 60.47068 | 24.59372 | 4005 ft | 266 kts | 93° |
| 2026-05-07 19:06 | 60.46861 | 24.63101 | 3624 ft | 265 kts | 94° |
| 2026-05-07 19:07 | 60.46646 | 24.66804 | 3222 ft | 264 kts | 94° |
| 2026-05-07 19:07 | 60.46431 | 24.70443 | 2836 ft | 255 kts | 94° |
| 2026-05-07 19:07 | 60.46218 | 24.73972 | 2448 ft | 250 kts | 94° |
| 2026-05-07 19:07 | 60.46009 | 24.77461 | 2110 ft | 247 kts | 94° |
| 2026-05-07 19:08 | 60.45783 | 24.80789 | 2019 ft | 232 kts | 98° |
| 2026-05-07 19:08 | 60.45063 | 24.83597 | 2039 ft | 226 kts | 131° |
| 2026-05-07 19:08 | 60.43866 | 24.85617 | 2021 ft | 227 kts | 153° |
| 2026-05-07 19:08 | 60.42409 | 24.86826 | 2016 ft | 226 kts | 159° |
| 2026-05-07 19:09 | 60.41045 | 24.88077 | 2011 ft | 204 kts | 152° |
| 2026-05-07 19:09 | 60.39836 | 24.89412 | 1839 ft | 193 kts | 150° |
| 2026-05-07 19:09 | 60.38657 | 24.90668 | 1495 ft | 191 kts | 153° |
| 2026-05-07 19:09 | 60.37471 | 24.91880 | 1200 ft | 191 kts | 153° |
| 2026-05-07 19:10 | 60.36296 | 24.93095 | 936 ft | 188 kts | 153° |
| 2026-05-07 19:10 | 60.35173 | 24.94252 | 683 ft | 172 kts | 154° |
| 2026-05-07 19:10 | 60.34171 | 24.95279 | 463 ft | 152 kts | 154° |
| 2026-05-07 19:10 | 60.33255 | 24.96226 | 260 ft | 146 kts | 154° |
| 2026-05-07 19:11 | 60.32377 | 24.97149 | 164 ft | 133 kts | 156° |
| 2026-05-07 19:11 | 60.31690 | 24.97821 | 158 ft | 91 kts | 152° |
| 2026-05-07 19:11 | 60.31474 | 24.98043 | 159 ft | 0 kts | 172° |
| 2026-05-07 19:11 | 60.31437 | 24.97994 | 161 ft | 15 kts | 234° |
| 2026-05-07 19:12 | 60.31411 | 24.97864 | 167 ft | 0 kts | 246° |
| 2026-05-07 19:12 | 60.31411 | 24.97824 | 167 ft | 6 kts | 282° |
| 2026-05-07 19:13 | 60.31481 | 24.97702 | 167 ft | 20 kts | 330° |
| 2026-05-07 19:13 | 60.31611 | 24.97565 | 167 ft | 22 kts | 333° |
| 2026-05-07 19:13 | 60.31753 | 24.97420 | 167 ft | 24 kts | 333° |
| 2026-05-07 19:13 | 60.31905 | 24.97263 | 167 ft | 25 kts | 333° |
| 2026-05-07 19:14 | 60.32065 | 24.97099 | 167 ft | 26 kts | 333° |
| 2026-05-07 19:14 | 60.32230 | 24.96929 | 167 ft | 22 kts | 333° |
| 2026-05-07 19:14 | 60.32267 | 24.96891 | 167 ft | 16 kts | 333° |
| 2026-05-07 19:14 | 60.32295 | 24.96792 | 167 ft | 11 kts | 259° |
| 2026-05-07 19:15 | 60.32218 | 24.96598 | 168 ft | 21 kts | 227° |
| 2026-05-07 19:15 | 60.32119 | 24.96378 | 168 ft | 21 kts | 227° |
| 2026-05-07 19:15 | 60.32017 | 24.96151 | 168 ft | 23 kts | 227° |
| 2026-05-07 19:15 | 60.31903 | 24.95898 | 168 ft | 25 kts | 227° |
| 2026-05-07 19:16 | 60.31787 | 24.95641 | 168 ft | 22 kts | 227° |
| 2026-05-07 19:16 | 60.31701 | 24.95542 | 168 ft | 14 kts | 165° |
| 2026-05-07 19:16 | 60.31637 | 24.95662 | 168 ft | 1 kts | 142° |
| 2026-05-07 19:16 | 60.31617 | 24.95665 | 168 ft | 5 kts | 182° |
| 2026-05-07 19:17 | 60.31582 | 24.95629 | 168 ft | 7 kts | 214° |
| 2026-05-07 19:17 | 60.31554 | 24.95638 | 168 ft | 4 kts | 142° |
| 2026-05-07 19:17 | 60.31521 | 24.95695 | 168 ft | 7 kts | 137° |
| 2026-05-07 19:17 | 60.31513 | 24.95710 | 168 ft | 0 kts | 138° |